sensor_id;sensor_type;location;lat;lon;timestamp;P1;durP1;ratioP1;P2;durP2;ratioP2
58240;SDS011;45058;55.772;38.224;2023-04-03T00:01:25;28.65;;;7.50;;
58240;SDS011;45058;55.772;38.224;2023-04-03T00:03:58;15.27;;;6.63;;
58240;SDS011;45058;55.772;38.224;2023-04-03T00:06:25;14.90;;;7.63;;
58240;SDS011;45058;55.772;38.224;2023-04-03T00:08:52;14.23;;;7.03;;
58240;SDS011;45058;55.772;38.224;2023-04-03T00:11:18;14.25;;;7.40;;
58240;SDS011;45058;55.772;38.224;2023-04-03T00:13:48;18.70;;;7.25;;
58240;SDS011;45058;55.772;38.224;2023-04-03T00:16:15;13.98;;;7.55;;
58240;SDS011;45058;55.772;38.224;2023-04-03T00:18:41;14.02;;;6.75;;
58240;SDS011;45058;55.772;38.224;2023-04-03T00:21:09;13.35;;;7.28;;
58240;SDS011;45058;55.772;38.224;2023-04-03T00:23:36;18.17;;;7.43;;
58240;SDS011;45058;55.772;38.224;2023-04-03T00:26:02;17.13;;;7.40;;
58240;SDS011;45058;55.772;38.224;2023-04-03T00:28:29;14.98;;;8.07;;
58240;SDS011;45058;55.772;38.224;2023-04-03T00:30:55;21.95;;;8.10;;
58240;SDS011;45058;55.772;38.224;2023-04-03T00:33:22;22.25;;;8.48;;
58240;SDS011;45058;55.772;38.224;2023-04-03T00:35:50;19.38;;;7.90;;
58240;SDS011;45058;55.772;38.224;2023-04-03T00:38:17;19.17;;;8.15;;
58240;SDS011;45058;55.772;38.224;2023-04-03T00:40:45;18.33;;;8.25;;
58240;SDS011;45058;55.772;38.224;2023-04-03T00:43:17;22.67;;;8.35;;
58240;SDS011;45058;55.772;38.224;2023-04-03T00:45:51;13.57;;;8.13;;
58240;SDS011;45058;55.772;38.224;2023-04-03T00:48:26;18.03;;;8.70;;
58240;SDS011;45058;55.772;38.224;2023-04-03T00:50:56;12.68;;;8.02;;
58240;SDS011;45058;55.772;38.224;2023-04-03T00:53:26;21.23;;;7.70;;
58240;SDS011;45058;55.772;38.224;2023-04-03T00:55:57;22.20;;;8.70;;
58240;SDS011;45058;55.772;38.224;2023-04-03T00:58:31;21.67;;;8.37;;
58240;SDS011;45058;55.772;38.224;2023-04-03T01:03:27;26.13;;;7.90;;
58240;SDS011;45058;55.772;38.224;2023-04-03T01:05:54;12.68;;;7.72;;
58240;SDS011;45058;55.772;38.224;2023-04-03T01:08:20;17.27;;;8.23;;
58240;SDS011;45058;55.772;38.224;2023-04-03T01:10:48;18.00;;;8.57;;
58240;SDS011;45058;55.772;38.224;2023-04-03T01:13:26;16.77;;;8.30;;
58240;SDS011;45058;55.772;38.224;2023-04-03T01:16:00;17.53;;;8.23;;
58240;SDS011;45058;55.772;38.224;2023-04-03T01:18:31;21.02;;;8.77;;
58240;SDS011;45058;55.772;38.224;2023-04-03T01:21:05;15.40;;;8.37;;
58240;SDS011;45058;55.772;38.224;2023-04-03T01:26:31;20.13;;;9.13;;
58240;SDS011;45058;55.772;38.224;2023-04-03T01:28:58;30.67;;;10.50;;
58240;SDS011;45058;55.772;38.224;2023-04-03T01:33:55;19.47;;;11.03;;
58240;SDS011;45058;55.772;38.224;2023-04-03T01:36:23;30.73;;;17.83;;
58240;SDS011;45058;55.772;38.224;2023-04-03T01:38:51;34.27;;;20.00;;
58240;SDS011;45058;55.772;38.224;2023-04-03T01:41:19;41.73;;;21.20;;
58240;SDS011;45058;55.772;38.224;2023-04-03T01:43:47;34.07;;;20.47;;
58240;SDS011;45058;55.772;38.224;2023-04-03T01:46:15;44.40;;;28.63;;
58240;SDS011;45058;55.772;38.224;2023-04-03T01:48:42;56.90;;;34.53;;
58240;SDS011;45058;55.772;38.224;2023-04-03T01:51:09;65.73;;;44.27;;
58240;SDS011;45058;55.772;38.224;2023-04-03T01:53:36;77.53;;;49.63;;
58240;SDS011;45058;55.772;38.224;2023-04-03T01:56:02;76.57;;;47.83;;
58240;SDS011;45058;55.772;38.224;2023-04-03T01:58:31;68.67;;;44.73;;
58240;SDS011;45058;55.772;38.224;2023-04-03T02:00:57;65.00;;;41.67;;
58240;SDS011;45058;55.772;38.224;2023-04-03T02:03:25;61.00;;;39.77;;
58240;SDS011;45058;55.772;38.224;2023-04-03T02:05:52;59.07;;;34.10;;
58240;SDS011;45058;55.772;38.224;2023-04-03T02:08:19;47.70;;;28.73;;
58240;SDS011;45058;55.772;38.224;2023-04-03T02:10:49;43.70;;;24.47;;
58240;SDS011;45058;55.772;38.224;2023-04-03T02:13:16;54.87;;;28.50;;
58240;SDS011;45058;55.772;38.224;2023-04-03T02:15:44;52.93;;;29.00;;
58240;SDS011;45058;55.772;38.224;2023-04-03T02:18:11;41.33;;;24.77;;
58240;SDS011;45058;55.772;38.224;2023-04-03T02:20:38;43.17;;;24.93;;
58240;SDS011;45058;55.772;38.224;2023-04-03T02:23:06;43.37;;;27.00;;
58240;SDS011;45058;55.772;38.224;2023-04-03T02:25:33;46.53;;;28.40;;
58240;SDS011;45058;55.772;38.224;2023-04-03T02:28:00;66.87;;;37.03;;
58240;SDS011;45058;55.772;38.224;2023-04-03T02:30:27;71.33;;;42.30;;
58240;SDS011;45058;55.772;38.224;2023-04-03T02:32:55;78.13;;;43.57;;
58240;SDS011;45058;55.772;38.224;2023-04-03T02:35:22;64.53;;;38.10;;
58240;SDS011;45058;55.772;38.224;2023-04-03T02:37:49;80.07;;;43.63;;
58240;SDS011;45058;55.772;38.224;2023-04-03T02:40:15;89.10;;;46.77;;
58240;SDS011;45058;55.772;38.224;2023-04-03T02:42:42;95.50;;;48.33;;
58240;SDS011;45058;55.772;38.224;2023-04-03T02:45:09;88.90;;;47.53;;
58240;SDS011;45058;55.772;38.224;2023-04-03T02:47:35;90.23;;;49.03;;
58240;SDS011;45058;55.772;38.224;2023-04-03T02:50:02;93.63;;;50.23;;
58240;SDS011;45058;55.772;38.224;2023-04-03T02:52:31;84.73;;;46.30;;
58240;SDS011;45058;55.772;38.224;2023-04-03T02:54:57;89.53;;;47.73;;
58240;SDS011;45058;55.772;38.224;2023-04-03T02:57:23;93.77;;;47.63;;
58240;SDS011;45058;55.772;38.224;2023-04-03T02:59:50;85.53;;;45.07;;
58240;SDS011;45058;55.772;38.224;2023-04-03T03:02:16;81.27;;;43.30;;
58240;SDS011;45058;55.772;38.224;2023-04-03T03:04:43;83.80;;;44.37;;
58240;SDS011;45058;55.772;38.224;2023-04-03T03:07:09;80.70;;;43.13;;
58240;SDS011;45058;55.772;38.224;2023-04-03T03:09:36;82.53;;;42.30;;
58240;SDS011;45058;55.772;38.224;2023-04-03T03:12:04;87.10;;;42.80;;
58240;SDS011;45058;55.772;38.224;2023-04-03T03:14:33;91.50;;;42.63;;
58240;SDS011;45058;55.772;38.224;2023-04-03T03:16:59;85.57;;;43.30;;
58240;SDS011;45058;55.772;38.224;2023-04-03T03:19:25;81.90;;;40.60;;
58240;SDS011;45058;55.772;38.224;2023-04-03T03:21:52;80.80;;;40.40;;
58240;SDS011;45058;55.772;38.224;2023-04-03T03:24:19;66.73;;;37.80;;
58240;SDS011;45058;55.772;38.224;2023-04-03T03:26:47;70.10;;;35.10;;
58240;SDS011;45058;55.772;38.224;2023-04-03T03:29:14;66.27;;;32.53;;
58240;SDS011;45058;55.772;38.224;2023-04-03T03:31:40;64.17;;;30.33;;
58240;SDS011;45058;55.772;38.224;2023-04-03T03:34:11;56.30;;;29.73;;
58240;SDS011;45058;55.772;38.224;2023-04-03T03:36:40;59.90;;;29.93;;
58240;SDS011;45058;55.772;38.224;2023-04-03T03:39:07;47.03;;;27.27;;
58240;SDS011;45058;55.772;38.224;2023-04-03T03:41:33;60.60;;;29.33;;
58240;SDS011;45058;55.772;38.224;2023-04-03T03:44:00;55.57;;;27.97;;
58240;SDS011;45058;55.772;38.224;2023-04-03T03:46:29;46.07;;;24.70;;
58240;SDS011;45058;55.772;38.224;2023-04-03T03:48:56;43.87;;;25.13;;
58240;SDS011;45058;55.772;38.224;2023-04-03T03:51:23;40.93;;;22.77;;
58240;SDS011;45058;55.772;38.224;2023-04-03T03:53:51;43.83;;;25.40;;
58240;SDS011;45058;55.772;38.224;2023-04-03T03:56:19;42.57;;;22.77;;
58240;SDS011;45058;55.772;38.224;2023-04-03T03:58:47;39.30;;;22.57;;
58240;SDS011;45058;55.772;38.224;2023-04-03T04:01:15;39.23;;;23.20;;
58240;SDS011;45058;55.772;38.224;2023-04-03T04:03:46;44.57;;;23.13;;
58240;SDS011;45058;55.772;38.224;2023-04-03T04:06:17;39.20;;;21.63;;
58240;SDS011;45058;55.772;38.224;2023-04-03T04:08:43;36.83;;;21.30;;
58240;SDS011;45058;55.772;38.224;2023-04-03T04:11:13;33.13;;;20.23;;
58240;SDS011;45058;55.772;38.224;2023-04-03T04:13:42;35.63;;;20.70;;
58240;SDS011;45058;55.772;38.224;2023-04-03T04:16:11;40.33;;;20.87;;
58240;SDS011;45058;55.772;38.224;2023-04-03T04:18:38;34.57;;;20.33;;
58240;SDS011;45058;55.772;38.224;2023-04-03T04:21:04;28.20;;;17.97;;
58240;SDS011;45058;55.772;38.224;2023-04-03T04:23:31;32.03;;;18.83;;
58240;SDS011;45058;55.772;38.224;2023-04-03T04:25:59;30.90;;;18.70;;
58240;SDS011;45058;55.772;38.224;2023-04-03T04:28:31;32.93;;;17.77;;
58240;SDS011;45058;55.772;38.224;2023-04-03T04:30:59;29.50;;;16.80;;
58240;SDS011;45058;55.772;38.224;2023-04-03T04:33:27;24.87;;;15.17;;
58240;SDS011;45058;55.772;38.224;2023-04-03T04:35:55;26.43;;;14.90;;
58240;SDS011;45058;55.772;38.224;2023-04-03T04:38:21;30.40;;;14.87;;
58240;SDS011;45058;55.772;38.224;2023-04-03T04:40:50;24.77;;;14.37;;
58240;SDS011;45058;55.772;38.224;2023-04-03T04:43:17;26.40;;;15.17;;
58240;SDS011;45058;55.772;38.224;2023-04-03T04:45:47;21.40;;;13.57;;
58240;SDS011;45058;55.772;38.224;2023-04-03T04:48:17;18.87;;;13.93;;
58240;SDS011;45058;55.772;38.224;2023-04-03T04:50:44;23.17;;;13.20;;
58240;SDS011;45058;55.772;38.224;2023-04-03T04:53:13;21.67;;;12.80;;
58240;SDS011;45058;55.772;38.224;2023-04-03T04:55:39;21.33;;;12.53;;
58240;SDS011;45058;55.772;38.224;2023-04-03T04:58:06;20.80;;;12.30;;
58240;SDS011;45058;55.772;38.224;2023-04-03T05:00:34;26.47;;;13.37;;
58240;SDS011;45058;55.772;38.224;2023-04-03T05:03:01;19.13;;;11.57;;
58240;SDS011;45058;55.772;38.224;2023-04-03T05:05:28;16.80;;;11.53;;
58240;SDS011;45058;55.772;38.224;2023-04-03T05:08:06;22.33;;;12.60;;
58240;SDS011;45058;55.772;38.224;2023-04-03T05:10:34;21.73;;;12.23;;
58240;SDS011;45058;55.772;38.224;2023-04-03T05:13:01;21.80;;;12.67;;
58240;SDS011;45058;55.772;38.224;2023-04-03T05:15:28;16.50;;;12.13;;
58240;SDS011;45058;55.772;38.224;2023-04-03T05:17:57;24.57;;;12.83;;
58240;SDS011;45058;55.772;38.224;2023-04-03T05:20:24;21.40;;;12.70;;
58240;SDS011;45058;55.772;38.224;2023-04-03T05:22:51;19.30;;;11.97;;
58240;SDS011;45058;55.772;38.224;2023-04-03T05:25:18;18.43;;;11.90;;
58240;SDS011;45058;55.772;38.224;2023-04-03T05:27:44;24.23;;;12.30;;
58240;SDS011;45058;55.772;38.224;2023-04-03T05:30:11;17.55;;;12.00;;
58240;SDS011;45058;55.772;38.224;2023-04-03T05:32:40;17.03;;;10.37;;
58240;SDS011;45058;55.772;38.224;2023-04-03T05:35:18;18.37;;;11.27;;
58240;SDS011;45058;55.772;38.224;2023-04-03T05:37:48;30.33;;;21.83;;
58240;SDS011;45058;55.772;38.224;2023-04-03T05:40:16;34.87;;;25.57;;
58240;SDS011;45058;55.772;38.224;2023-04-03T05:42:45;22.55;;;14.82;;
58240;SDS011;45058;55.772;38.224;2023-04-03T05:45:13;20.63;;;11.93;;
58240;SDS011;45058;55.772;38.224;2023-04-03T05:47:40;24.55;;;11.48;;
58240;SDS011;45058;55.772;38.224;2023-04-03T05:50:07;23.40;;;11.52;;
58240;SDS011;45058;55.772;38.224;2023-04-03T05:52:37;22.27;;;10.35;;
58240;SDS011;45058;55.772;38.224;2023-04-03T05:55:07;23.63;;;11.82;;
58240;SDS011;45058;55.772;38.224;2023-04-03T05:57:35;25.00;;;11.20;;
58240;SDS011;45058;55.772;38.224;2023-04-03T06:00:04;22.77;;;10.68;;
58240;SDS011;45058;55.772;38.224;2023-04-03T06:02:39;15.45;;;9.93;;
58240;SDS011;45058;55.772;38.224;2023-04-03T06:05:12;13.73;;;9.98;;
58240;SDS011;45058;55.772;38.224;2023-04-03T06:07:42;24.00;;;11.48;;
58240;SDS011;45058;55.772;38.224;2023-04-03T06:10:11;20.52;;;10.88;;
58240;SDS011;45058;55.772;38.224;2023-04-03T06:12:38;25.60;;;11.70;;
58240;SDS011;45058;55.772;38.224;2023-04-03T06:15:05;23.35;;;10.77;;
58240;SDS011;45058;55.772;38.224;2023-04-03T06:17:34;25.27;;;11.32;;
58240;SDS011;45058;55.772;38.224;2023-04-03T06:20:02;20.13;;;12.13;;
58240;SDS011;45058;55.772;38.224;2023-04-03T06:22:29;20.98;;;13.00;;
58240;SDS011;45058;55.772;38.224;2023-04-03T06:24:57;15.98;;;11.10;;
58240;SDS011;45058;55.772;38.224;2023-04-03T06:27:23;17.33;;;10.20;;
58240;SDS011;45058;55.772;38.224;2023-04-03T06:29:50;16.65;;;10.02;;
58240;SDS011;45058;55.772;38.224;2023-04-03T06:32:18;18.40;;;10.80;;
58240;SDS011;45058;55.772;38.224;2023-04-03T06:34:45;18.25;;;10.30;;
58240;SDS011;45058;55.772;38.224;2023-04-03T06:37:16;26.58;;;12.88;;
58240;SDS011;45058;55.772;38.224;2023-04-03T06:39:43;22.15;;;12.52;;
58240;SDS011;45058;55.772;38.224;2023-04-03T06:42:11;19.75;;;12.30;;
58240;SDS011;45058;55.772;38.224;2023-04-03T06:44:46;27.08;;;12.75;;
58240;SDS011;45058;55.772;38.224;2023-04-03T06:47:14;28.55;;;13.80;;
58240;SDS011;45058;55.772;38.224;2023-04-03T06:49:41;21.23;;;13.60;;
58240;SDS011;45058;55.772;38.224;2023-04-03T06:52:13;24.05;;;12.90;;
58240;SDS011;45058;55.772;38.224;2023-04-03T06:54:40;23.40;;;14.27;;
58240;SDS011;45058;55.772;38.224;2023-04-03T06:57:07;23.55;;;13.30;;
58240;SDS011;45058;55.772;38.224;2023-04-03T06:59:33;23.13;;;13.80;;
58240;SDS011;45058;55.772;38.224;2023-04-03T07:02:01;24.10;;;12.98;;
58240;SDS011;45058;55.772;38.224;2023-04-03T07:04:28;22.92;;;13.48;;
58240;SDS011;45058;55.772;38.224;2023-04-03T07:06:55;22.95;;;12.45;;
58240;SDS011;45058;55.772;38.224;2023-04-03T07:09:23;26.50;;;13.52;;
58240;SDS011;45058;55.772;38.224;2023-04-03T07:11:51;23.92;;;12.65;;
58240;SDS011;45058;55.772;38.224;2023-04-03T07:14:17;24.48;;;12.32;;
58240;SDS011;45058;55.772;38.224;2023-04-03T07:16:44;21.27;;;12.50;;
58240;SDS011;45058;55.772;38.224;2023-04-03T07:19:10;26.77;;;12.30;;
58240;SDS011;45058;55.772;38.224;2023-04-03T07:21:37;25.95;;;11.88;;
58240;SDS011;45058;55.772;38.224;2023-04-03T07:24:04;19.30;;;12.25;;
58240;SDS011;45058;55.772;38.224;2023-04-03T07:26:31;17.75;;;12.10;;
58240;SDS011;45058;55.772;38.224;2023-04-03T07:28:58;21.20;;;12.77;;
58240;SDS011;45058;55.772;38.224;2023-04-03T07:31:25;19.17;;;12.15;;
58240;SDS011;45058;55.772;38.224;2023-04-03T07:33:52;19.33;;;12.02;;
58240;SDS011;45058;55.772;38.224;2023-04-03T07:36:19;16.52;;;10.32;;
58240;SDS011;45058;55.772;38.224;2023-04-03T07:38:48;19.85;;;11.23;;
58240;SDS011;45058;55.772;38.224;2023-04-03T07:41:16;21.30;;;10.85;;
58240;SDS011;45058;55.772;38.224;2023-04-03T07:43:44;21.52;;;11.25;;
58240;SDS011;45058;55.772;38.224;2023-04-03T07:46:12;16.35;;;10.32;;
58240;SDS011;45058;55.772;38.224;2023-04-03T07:48:38;17.67;;;10.70;;
58240;SDS011;45058;55.772;38.224;2023-04-03T07:51:05;18.67;;;10.77;;
58240;SDS011;45058;55.772;38.224;2023-04-03T07:53:31;15.95;;;10.63;;
58240;SDS011;45058;55.772;38.224;2023-04-03T07:55:58;17.90;;;10.93;;
58240;SDS011;45058;55.772;38.224;2023-04-03T07:58:25;17.30;;;10.07;;
58240;SDS011;45058;55.772;38.224;2023-04-03T08:00:52;19.05;;;10.38;;
58240;SDS011;45058;55.772;38.224;2023-04-03T08:03:19;18.10;;;11.18;;
58240;SDS011;45058;55.772;38.224;2023-04-03T08:05:47;19.13;;;10.38;;
58240;SDS011;45058;55.772;38.224;2023-04-03T08:08:16;15.10;;;9.73;;
58240;SDS011;45058;55.772;38.224;2023-04-03T08:10:53;19.40;;;10.27;;
58240;SDS011;45058;55.772;38.224;2023-04-03T08:13:20;15.07;;;9.65;;
58240;SDS011;45058;55.772;38.224;2023-04-03T08:15:46;15.75;;;9.88;;
58240;SDS011;45058;55.772;38.224;2023-04-03T08:18:13;14.32;;;9.55;;
58240;SDS011;45058;55.772;38.224;2023-04-03T08:20:41;16.50;;;9.50;;
58240;SDS011;45058;55.772;38.224;2023-04-03T08:23:07;15.75;;;9.05;;
58240;SDS011;45058;55.772;38.224;2023-04-03T08:25:37;17.40;;;9.80;;
58240;SDS011;45058;55.772;38.224;2023-04-03T08:28:05;15.85;;;8.48;;
58240;SDS011;45058;55.772;38.224;2023-04-03T08:30:32;13.23;;;8.43;;
58240;SDS011;45058;55.772;38.224;2023-04-03T08:33:01;15.35;;;7.95;;
58240;SDS011;45058;55.772;38.224;2023-04-03T08:35:28;14.13;;;8.57;;
58240;SDS011;45058;55.772;38.224;2023-04-03T08:37:55;18.00;;;8.68;;
58240;SDS011;45058;55.772;38.224;2023-04-03T08:40:22;13.77;;;8.57;;
58240;SDS011;45058;55.772;38.224;2023-04-03T08:50:47;19.17;;;9.80;;
58240;SDS011;45058;55.772;38.224;2023-04-03T08:53:25;21.65;;;11.90;;
58240;SDS011;45058;55.772;38.224;2023-04-03T08:55:54;18.48;;;10.07;;
58240;SDS011;45058;55.772;38.224;2023-04-03T08:58:22;17.73;;;9.88;;
58240;SDS011;45058;55.772;38.224;2023-04-03T09:01:05;18.98;;;8.75;;
58240;SDS011;45058;55.772;38.224;2023-04-03T09:03:34;14.52;;;9.05;;
58240;SDS011;45058;55.772;38.224;2023-04-03T09:11:27;20.55;;;11.75;;
58240;SDS011;45058;55.772;38.224;2023-04-03T09:22:21;17.40;;;9.95;;
58240;SDS011;45058;55.772;38.224;2023-04-03T09:24:55;15.73;;;10.18;;
58240;SDS011;45058;55.772;38.224;2023-04-03T09:27:28;11.98;;;9.75;;
58240;SDS011;45058;55.772;38.224;2023-04-03T09:29:55;21.10;;;9.98;;
58240;SDS011;45058;55.772;38.224;2023-04-03T09:35:01;22.90;;;12.10;;
58240;SDS011;45058;55.772;38.224;2023-04-03T09:40:04;17.20;;;10.43;;
58240;SDS011;45058;55.772;38.224;2023-04-03T09:42:32;15.15;;;9.75;;
58240;SDS011;45058;55.772;38.224;2023-04-03T09:44:59;13.15;;;9.25;;
58240;SDS011;45058;55.772;38.224;2023-04-03T09:47:30;13.90;;;8.90;;
58240;SDS011;45058;55.772;38.224;2023-04-03T09:52:40;15.27;;;9.63;;
58240;SDS011;45058;55.772;38.224;2023-04-03T09:55:13;14.20;;;9.07;;
58240;SDS011;45058;55.772;38.224;2023-04-03T09:57:45;14.95;;;8.73;;
58240;SDS011;45058;55.772;38.224;2023-04-03T10:00:22;14.18;;;9.15;;
58240;SDS011;45058;55.772;38.224;2023-04-03T10:02:51;13.27;;;8.35;;
58240;SDS011;45058;55.772;38.224;2023-04-03T10:05:40;15.57;;;9.40;;
58240;SDS011;45058;55.772;38.224;2023-04-03T10:10:41;13.93;;;9.35;;
58240;SDS011;45058;55.772;38.224;2023-04-03T10:15:44;13.32;;;8.93;;
58240;SDS011;45058;55.772;38.224;2023-04-03T10:18:26;14.55;;;8.55;;
58240;SDS011;45058;55.772;38.224;2023-04-03T10:24:24;14.63;;;8.20;;
58240;SDS011;45058;55.772;38.224;2023-04-03T10:35:10;17.27;;;9.18;;
58240;SDS011;45058;55.772;38.224;2023-04-03T10:43:36;13.95;;;8.07;;
58240;SDS011;45058;55.772;38.224;2023-04-03T10:46:09;17.63;;;7.47;;
58240;SDS011;45058;55.772;38.224;2023-04-03T10:56:39;16.95;;;7.70;;
58240;SDS011;45058;55.772;38.224;2023-04-03T10:59:13;11.45;;;6.35;;
58240;SDS011;45058;55.772;38.224;2023-04-03T11:04:41;11.55;;;6.70;;
58240;SDS011;45058;55.772;38.224;2023-04-03T11:07:15;15.15;;;7.80;;
58240;SDS011;45058;55.772;38.224;2023-04-03T11:09:45;12.45;;;6.80;;
58240;SDS011;45058;55.772;38.224;2023-04-03T11:12:18;12.40;;;6.03;;
58240;SDS011;45058;55.772;38.224;2023-04-03T11:14:50;14.15;;;5.65;;
58240;SDS011;45058;55.772;38.224;2023-04-03T11:19:49;8.25;;;5.38;;
58240;SDS011;45058;55.772;38.224;2023-04-03T11:25:31;11.75;;;5.68;;
58240;SDS011;45058;55.772;38.224;2023-04-03T11:28:03;13.07;;;5.55;;
58240;SDS011;45058;55.772;38.224;2023-04-03T11:30:44;9.07;;;5.75;;
58240;SDS011;45058;55.772;38.224;2023-04-03T11:33:19;10.40;;;6.25;;
58240;SDS011;45058;55.772;38.224;2023-04-03T11:35:51;7.72;;;5.60;;
58240;SDS011;45058;55.772;38.224;2023-04-03T11:38:28;10.05;;;6.25;;
58240;SDS011;45058;55.772;38.224;2023-04-03T11:41:03;11.60;;;6.03;;
58240;SDS011;45058;55.772;38.224;2023-04-03T11:43:36;10.43;;;5.57;;
58240;SDS011;45058;55.772;38.224;2023-04-03T11:46:20;13.70;;;6.80;;
58240;SDS011;45058;55.772;38.224;2023-04-03T11:48:48;10.43;;;6.78;;
58240;SDS011;45058;55.772;38.224;2023-04-03T11:53:48;10.88;;;6.05;;
58240;SDS011;45058;55.772;38.224;2023-04-03T12:01:44;7.88;;;4.82;;
58240;SDS011;45058;55.772;38.224;2023-04-03T12:04:28;9.50;;;5.07;;
58240;SDS011;45058;55.772;38.224;2023-04-03T12:07:00;9.57;;;4.85;;
58240;SDS011;45058;55.772;38.224;2023-04-03T12:12:47;11.80;;;5.75;;
58240;SDS011;45058;55.772;38.224;2023-04-03T12:15:21;9.73;;;5.40;;
58240;SDS011;45058;55.772;38.224;2023-04-03T12:17:49;9.55;;;5.75;;
58240;SDS011;45058;55.772;38.224;2023-04-03T12:23:31;11.02;;;5.70;;
58240;SDS011;45058;55.772;38.224;2023-04-03T12:27:00;10.10;;;5.10;;
58240;SDS011;45058;55.772;38.224;2023-04-03T12:37:50;12.18;;;6.55;;
58240;SDS011;45058;55.772;38.224;2023-04-03T12:43:20;12.05;;;6.57;;
58240;SDS011;45058;55.772;38.224;2023-04-03T12:51:45;12.98;;;5.88;;
58240;SDS011;45058;55.772;38.224;2023-04-03T12:54:19;10.95;;;5.43;;
58240;SDS011;45058;55.772;38.224;2023-04-03T12:57:08;11.02;;;6.28;;
58240;SDS011;45058;55.772;38.224;2023-04-03T12:59:45;15.93;;;5.90;;
58240;SDS011;45058;55.772;38.224;2023-04-03T13:04:52;14.48;;;5.95;;
58240;SDS011;45058;55.772;38.224;2023-04-03T13:07:21;9.27;;;6.03;;
58240;SDS011;45058;55.772;38.224;2023-04-03T13:09:57;12.40;;;6.18;;
58240;SDS011;45058;55.772;38.224;2023-04-03T13:12:25;10.82;;;5.82;;
58240;SDS011;45058;55.772;38.224;2023-04-03T13:14:53;9.07;;;5.90;;
58240;SDS011;45058;55.772;38.224;2023-04-03T13:17:24;9.40;;;5.32;;
58240;SDS011;45058;55.772;38.224;2023-04-03T13:19:51;9.02;;;5.53;;
58240;SDS011;45058;55.772;38.224;2023-04-03T13:25:05;11.35;;;5.32;;
58240;SDS011;45058;55.772;38.224;2023-04-03T13:27:33;10.07;;;5.88;;
58240;SDS011;45058;55.772;38.224;2023-04-03T13:30:00;10.25;;;5.60;;
58240;SDS011;45058;55.772;38.224;2023-04-03T13:32:29;12.70;;;6.38;;
58240;SDS011;45058;55.772;38.224;2023-04-03T13:34:57;11.40;;;6.15;;
58240;SDS011;45058;55.772;38.224;2023-04-03T13:37:26;10.65;;;5.38;;
58240;SDS011;45058;55.772;38.224;2023-04-03T13:42:30;9.20;;;5.20;;
58240;SDS011;45058;55.772;38.224;2023-04-03T13:47:47;12.55;;;7.30;;
58240;SDS011;45058;55.772;38.224;2023-04-03T13:50:16;13.82;;;7.00;;
58240;SDS011;45058;55.772;38.224;2023-04-03T13:52:59;12.02;;;7.50;;
58240;SDS011;45058;55.772;38.224;2023-04-03T13:55:32;12.45;;;7.05;;
58240;SDS011;45058;55.772;38.224;2023-04-03T13:58:23;14.75;;;6.43;;
58240;SDS011;45058;55.772;38.224;2023-04-03T14:06:07;12.00;;;5.93;;
58240;SDS011;45058;55.772;38.224;2023-04-03T14:08:41;14.27;;;5.80;;
58240;SDS011;45058;55.772;38.224;2023-04-03T14:11:13;13.80;;;5.68;;
58240;SDS011;45058;55.772;38.224;2023-04-03T14:13:44;12.15;;;5.25;;
58240;SDS011;45058;55.772;38.224;2023-04-03T14:16:13;9.20;;;5.47;;
58240;SDS011;45058;55.772;38.224;2023-04-03T14:18:43;11.20;;;6.28;;
58240;SDS011;45058;55.772;38.224;2023-04-03T14:21:13;7.97;;;5.13;;
58240;SDS011;45058;55.772;38.224;2023-04-03T14:23:40;10.73;;;5.75;;
58240;SDS011;45058;55.772;38.224;2023-04-03T14:26:14;15.32;;;5.30;;
58240;SDS011;45058;55.772;38.224;2023-04-03T14:28:43;14.60;;;6.20;;
58240;SDS011;45058;55.772;38.224;2023-04-03T14:31:11;11.25;;;5.65;;
58240;SDS011;45058;55.772;38.224;2023-04-03T14:33:39;14.90;;;6.13;;
58240;SDS011;45058;55.772;38.224;2023-04-03T14:36:15;11.40;;;5.47;;
58240;SDS011;45058;55.772;38.224;2023-04-03T14:38:53;13.10;;;6.07;;
58240;SDS011;45058;55.772;38.224;2023-04-03T14:41:22;9.52;;;5.32;;
58240;SDS011;45058;55.772;38.224;2023-04-03T14:43:49;8.70;;;5.65;;
58240;SDS011;45058;55.772;38.224;2023-04-03T14:48:44;7.35;;;4.68;;
58240;SDS011;45058;55.772;38.224;2023-04-03T14:51:11;8.23;;;4.97;;
58240;SDS011;45058;55.772;38.224;2023-04-03T14:53:39;11.93;;;5.40;;
58240;SDS011;45058;55.772;38.224;2023-04-03T14:58:49;13.43;;;6.03;;
58240;SDS011;45058;55.772;38.224;2023-04-03T15:01:22;14.23;;;6.32;;
58240;SDS011;45058;55.772;38.224;2023-04-03T15:03:49;12.02;;;6.65;;
58240;SDS011;45058;55.772;38.224;2023-04-03T15:06:16;12.15;;;6.50;;
58240;SDS011;45058;55.772;38.224;2023-04-03T15:08:43;9.20;;;6.00;;
58240;SDS011;45058;55.772;38.224;2023-04-03T15:11:10;14.32;;;7.72;;
58240;SDS011;45058;55.772;38.224;2023-04-03T15:13:40;17.00;;;7.10;;
58240;SDS011;45058;55.772;38.224;2023-04-03T15:16:25;14.25;;;7.50;;
58240;SDS011;45058;55.772;38.224;2023-04-03T15:18:51;15.05;;;7.45;;
58240;SDS011;45058;55.772;38.224;2023-04-03T15:21:18;19.73;;;7.63;;
58240;SDS011;45058;55.772;38.224;2023-04-03T15:23:44;15.30;;;7.20;;
58240;SDS011;45058;55.772;38.224;2023-04-03T15:26:11;17.88;;;7.47;;
58240;SDS011;45058;55.772;38.224;2023-04-03T15:28:39;19.27;;;8.73;;
58240;SDS011;45058;55.772;38.224;2023-04-03T15:31:07;18.83;;;9.05;;
58240;SDS011;45058;55.772;38.224;2023-04-03T15:33:34;16.90;;;8.35;;
58240;SDS011;45058;55.772;38.224;2023-04-03T15:36:01;21.92;;;6.78;;
58240;SDS011;45058;55.772;38.224;2023-04-03T15:38:29;23.30;;;7.28;;
58240;SDS011;45058;55.772;38.224;2023-04-03T15:40:55;19.33;;;7.45;;
58240;SDS011;45058;55.772;38.224;2023-04-03T15:43:22;12.05;;;7.13;;
58240;SDS011;45058;55.772;38.224;2023-04-03T15:45:51;23.13;;;8.27;;
58240;SDS011;45058;55.772;38.224;2023-04-03T15:48:18;20.63;;;7.88;;
58240;SDS011;45058;55.772;38.224;2023-04-03T15:50:44;13.68;;;8.02;;
58240;SDS011;45058;55.772;38.224;2023-04-03T15:53:11;17.58;;;7.88;;
58240;SDS011;45058;55.772;38.224;2023-04-03T15:55:37;15.48;;;7.75;;
58240;SDS011;45058;55.772;38.224;2023-04-03T15:58:04;14.82;;;7.57;;
58240;SDS011;45058;55.772;38.224;2023-04-03T16:00:31;15.18;;;8.40;;
58240;SDS011;45058;55.772;38.224;2023-04-03T16:02:59;11.73;;;7.88;;
58240;SDS011;45058;55.772;38.224;2023-04-03T16:05:29;19.33;;;7.53;;
58240;SDS011;45058;55.772;38.224;2023-04-03T16:07:59;14.63;;;8.95;;
58240;SDS011;45058;55.772;38.224;2023-04-03T16:10:26;13.95;;;7.97;;
58240;SDS011;45058;55.772;38.224;2023-04-03T16:12:56;16.02;;;8.48;;
58240;SDS011;45058;55.772;38.224;2023-04-03T16:15:23;15.23;;;8.45;;
58240;SDS011;45058;55.772;38.224;2023-04-03T16:17:50;13.48;;;8.43;;
58240;SDS011;45058;55.772;38.224;2023-04-03T16:20:16;17.73;;;8.00;;
58240;SDS011;45058;55.772;38.224;2023-04-03T16:22:44;18.55;;;9.10;;
58240;SDS011;45058;55.772;38.224;2023-04-03T16:25:11;19.70;;;8.15;;
58240;SDS011;45058;55.772;38.224;2023-04-03T16:27:38;18.42;;;10.52;;
58240;SDS011;45058;55.772;38.224;2023-04-03T16:30:05;20.83;;;10.40;;
58240;SDS011;45058;55.772;38.224;2023-04-03T16:32:33;23.35;;;10.00;;
58240;SDS011;45058;55.772;38.224;2023-04-03T16:35:00;21.42;;;9.45;;
58240;SDS011;45058;55.772;38.224;2023-04-03T16:37:27;23.27;;;10.98;;